sensor_id;sensor_type;location;lat;lon;timestamp;P1;durP1;ratioP1;P2;durP2;ratioP2
50350;SDS011;36250;48.740;22.174;2022-08-14T00:00:08;11.10;;;8.90;;
50350;SDS011;36250;48.740;22.174;2022-08-14T00:02:36;10.93;;;8.73;;
50350;SDS011;36250;48.740;22.174;2022-08-14T00:05:01;9.52;;;8.05;;
50350;SDS011;36250;48.740;22.174;2022-08-14T00:07:27;11.63;;;8.85;;
50350;SDS011;36250;48.740;22.174;2022-08-14T00:09:52;12.30;;;8.60;;
50350;SDS011;36250;48.740;22.174;2022-08-14T00:12:18;9.90;;;8.90;;
50350;SDS011;36250;48.740;22.174;2022-08-14T00:14:44;10.75;;;9.27;;
50350;SDS011;36250;48.740;22.174;2022-08-14T00:17:09;14.30;;;10.10;;
50350;SDS011;36250;48.740;22.174;2022-08-14T00:19:35;15.18;;;10.70;;
50350;SDS011;36250;48.740;22.174;2022-08-14T00:22:00;15.05;;;12.18;;
50350;SDS011;36250;48.740;22.174;2022-08-14T00:24:25;12.52;;;11.07;;
50350;SDS011;36250;48.740;22.174;2022-08-14T00:26:51;12.38;;;10.32;;
50350;SDS011;36250;48.740;22.174;2022-08-14T00:29:17;10.30;;;9.30;;
50350;SDS011;36250;48.740;22.174;2022-08-14T00:31:42;9.63;;;8.63;;
50350;SDS011;36250;48.740;22.174;2022-08-14T00:34:08;9.43;;;8.52;;
50350;SDS011;36250;48.740;22.174;2022-08-14T00:36:33;9.70;;;8.73;;
50350;SDS011;36250;48.740;22.174;2022-08-14T00:38:59;10.35;;;8.23;;
50350;SDS011;36250;48.740;22.174;2022-08-14T00:41:28;9.40;;;7.47;;
50350;SDS011;36250;48.740;22.174;2022-08-14T00:43:55;9.23;;;8.32;;
50350;SDS011;36250;48.740;22.174;2022-08-14T00:46:21;10.05;;;9.02;;
50350;SDS011;36250;48.740;22.174;2022-08-14T00:48:46;10.48;;;9.48;;
50350;SDS011;36250;48.740;22.174;2022-08-14T00:51:13;9.32;;;8.43;;
50350;SDS011;36250;48.740;22.174;2022-08-14T00:53:39;12.32;;;9.35;;
50350;SDS011;36250;48.740;22.174;2022-08-14T00:56:06;11.57;;;9.05;;
50350;SDS011;36250;48.740;22.174;2022-08-14T00:58:33;10.00;;;9.00;;
50350;SDS011;36250;48.740;22.174;2022-08-14T01:01:04;10.63;;;9.55;;
50350;SDS011;36250;48.740;22.174;2022-08-14T01:03:35;19.15;;;8.75;;
50350;SDS011;36250;48.740;22.174;2022-08-14T01:06:03;9.32;;;8.43;;
50350;SDS011;36250;48.740;22.174;2022-08-14T01:08:33;10.55;;;8.93;;
50350;SDS011;36250;48.740;22.174;2022-08-14T01:11:00;11.98;;;9.25;;
50350;SDS011;36250;48.740;22.174;2022-08-14T01:13:28;11.13;;;9.93;;
50350;SDS011;36250;48.740;22.174;2022-08-14T01:15:57;12.00;;;10.07;;
50350;SDS011;36250;48.740;22.174;2022-08-14T01:18:25;9.98;;;9.00;;
50350;SDS011;36250;48.740;22.174;2022-08-14T01:21:10;9.90;;;8.57;;
50350;SDS011;36250;48.740;22.174;2022-08-14T01:23:41;9.65;;;8.32;;
50350;SDS011;36250;48.740;22.174;2022-08-14T01:26:10;10.73;;;7.85;;
50350;SDS011;36250;48.740;22.174;2022-08-14T01:28:36;8.77;;;7.97;;
50350;SDS011;36250;48.740;22.174;2022-08-14T01:31:13;8.77;;;8.07;;
50350;SDS011;36250;48.740;22.174;2022-08-14T01:33:41;10.23;;;8.00;;
50350;SDS011;36250;48.740;22.174;2022-08-14T01:36:12;9.77;;;8.80;;
50350;SDS011;36250;48.740;22.174;2022-08-14T01:38:41;9.25;;;8.35;;
50350;SDS011;36250;48.740;22.174;2022-08-14T01:41:12;10.07;;;8.55;;
50350;SDS011;36250;48.740;22.174;2022-08-14T01:43:47;10.30;;;8.05;;
50350;SDS011;36250;48.740;22.174;2022-08-14T01:46:19;8.88;;;7.97;;
50350;SDS011;36250;48.740;22.174;2022-08-14T01:48:47;10.23;;;8.98;;
50350;SDS011;36250;48.740;22.174;2022-08-14T01:51:15;9.43;;;8.43;;
50350;SDS011;36250;48.740;22.174;2022-08-14T01:53:45;8.90;;;7.97;;
50350;SDS011;36250;48.740;22.174;2022-08-14T01:56:14;10.73;;;8.57;;
50350;SDS011;36250;48.740;22.174;2022-08-14T01:58:44;9.30;;;8.15;;
50350;SDS011;36250;48.740;22.174;2022-08-14T02:01:13;12.35;;;8.85;;
50350;SDS011;36250;48.740;22.174;2022-08-14T02:03:39;9.50;;;8.57;;
50350;SDS011;36250;48.740;22.174;2022-08-14T02:06:05;9.18;;;8.35;;
50350;SDS011;36250;48.740;22.174;2022-08-14T02:08:30;9.50;;;8.57;;
50350;SDS011;36250;48.740;22.174;2022-08-14T02:10:57;9.85;;;8.95;;
50350;SDS011;36250;48.740;22.174;2022-08-14T02:13:41;9.70;;;8.73;;
50350;SDS011;36250;48.740;22.174;2022-08-14T02:16:12;10.55;;;9.27;;
50350;SDS011;36250;48.740;22.174;2022-08-14T02:18:40;9.90;;;8.90;;
50350;SDS011;36250;48.740;22.174;2022-08-14T02:21:07;9.40;;;8.50;;
50350;SDS011;36250;48.740;22.174;2022-08-14T02:23:33;11.77;;;9.27;;
50350;SDS011;36250;48.740;22.174;2022-08-14T02:26:00;11.85;;;9.15;;
50350;SDS011;36250;48.740;22.174;2022-08-14T02:28:27;9.77;;;8.88;;
50350;SDS011;36250;48.740;22.174;2022-08-14T02:30:56;10.30;;;8.82;;
50350;SDS011;36250;48.740;22.174;2022-08-14T02:33:24;10.07;;;9.05;;
50350;SDS011;36250;48.740;22.174;2022-08-14T02:35:51;9.52;;;8.63;;
50350;SDS011;36250;48.740;22.174;2022-08-14T02:38:17;9.77;;;8.77;;
50350;SDS011;36250;48.740;22.174;2022-08-14T02:40:43;9.63;;;8.68;;
50350;SDS011;36250;48.740;22.174;2022-08-14T02:43:08;9.68;;;8.77;;
50350;SDS011;36250;48.740;22.174;2022-08-14T02:45:33;9.77;;;8.40;;
50350;SDS011;36250;48.740;22.174;2022-08-14T02:47:59;9.48;;;8.40;;
50350;SDS011;36250;48.740;22.174;2022-08-14T02:50:28;8.80;;;8.00;;
50350;SDS011;36250;48.740;22.174;2022-08-14T02:52:53;9.45;;;8.55;;
50350;SDS011;36250;48.740;22.174;2022-08-14T02:55:19;10.82;;;8.38;;
50350;SDS011;36250;48.740;22.174;2022-08-14T02:57:45;11.00;;;8.88;;
50350;SDS011;36250;48.740;22.174;2022-08-14T03:00:15;9.63;;;8.82;;
50350;SDS011;36250;48.740;22.174;2022-08-14T03:02:40;9.40;;;7.90;;
50350;SDS011;36250;48.740;22.174;2022-08-14T03:05:06;9.68;;;8.63;;
50350;SDS011;36250;48.740;22.174;2022-08-14T03:07:32;10.27;;;9.27;;
50350;SDS011;36250;48.740;22.174;2022-08-14T03:09:58;10.32;;;9.43;;
50350;SDS011;36250;48.740;22.174;2022-08-14T03:12:24;9.88;;;8.98;;
50350;SDS011;36250;48.740;22.174;2022-08-14T03:14:50;16.13;;;9.63;;
50350;SDS011;36250;48.740;22.174;2022-08-14T03:17:17;10.55;;;9.55;;
50350;SDS011;36250;48.740;22.174;2022-08-14T03:19:42;10.35;;;9.27;;
50350;SDS011;36250;48.740;22.174;2022-08-14T03:22:08;10.77;;;9.73;;
50350;SDS011;36250;48.740;22.174;2022-08-14T03:24:34;10.43;;;9.52;;
50350;SDS011;36250;48.740;22.174;2022-08-14T03:27:01;12.23;;;9.65;;
50350;SDS011;36250;48.740;22.174;2022-08-14T03:29:26;10.40;;;9.40;;
50350;SDS011;36250;48.740;22.174;2022-08-14T03:31:53;12.52;;;10.40;;
50350;SDS011;36250;48.740;22.174;2022-08-14T03:34:21;13.25;;;9.50;;
50350;SDS011;36250;48.740;22.174;2022-08-14T03:36:47;11.50;;;10.18;;
50350;SDS011;36250;48.740;22.174;2022-08-14T03:39:18;12.88;;;9.68;;
50350;SDS011;36250;48.740;22.174;2022-08-14T03:41:45;11.50;;;10.27;;
50350;SDS011;36250;48.740;22.174;2022-08-14T03:44:11;10.90;;;9.55;;
50350;SDS011;36250;48.740;22.174;2022-08-14T03:46:37;10.50;;;9.50;;
50350;SDS011;36250;48.740;22.174;2022-08-14T03:49:03;10.05;;;9.05;;
50350;SDS011;36250;48.740;22.174;2022-08-14T03:51:29;10.75;;;9.35;;
50350;SDS011;36250;48.740;22.174;2022-08-14T03:53:56;9.73;;;8.73;;
50350;SDS011;36250;48.740;22.174;2022-08-14T03:56:23;10.40;;;9.40;;
50350;SDS011;36250;48.740;22.174;2022-08-14T03:58:51;9.35;;;8.45;;
50350;SDS011;36250;48.740;22.174;2022-08-14T04:01:19;9.98;;;8.98;;
50350;SDS011;36250;48.740;22.174;2022-08-14T04:03:46;10.05;;;9.15;;
50350;SDS011;36250;48.740;22.174;2022-08-14T04:06:13;11.32;;;9.05;;
50350;SDS011;36250;48.740;22.174;2022-08-14T04:08:40;9.38;;;8.30;;
50350;SDS011;36250;48.740;22.174;2022-08-14T04:11:07;10.05;;;8.98;;
50350;SDS011;36250;48.740;22.174;2022-08-14T04:13:36;11.35;;;8.98;;
50350;SDS011;36250;48.740;22.174;2022-08-14T04:16:05;10.25;;;9.13;;
50350;SDS011;36250;48.740;22.174;2022-08-14T04:18:33;10.80;;;8.35;;
50350;SDS011;36250;48.740;22.174;2022-08-14T04:21:03;9.98;;;9.00;;
50350;SDS011;36250;48.740;22.174;2022-08-14T04:23:29;10.35;;;8.55;;
50350;SDS011;36250;48.740;22.174;2022-08-14T04:25:55;10.18;;;8.40;;
50350;SDS011;36250;48.740;22.174;2022-08-14T04:28:21;9.82;;;8.77;;
50350;SDS011;36250;48.740;22.174;2022-08-14T04:30:46;10.32;;;8.63;;
50350;SDS011;36250;48.740;22.174;2022-08-14T04:33:12;11.35;;;8.68;;
50350;SDS011;36250;48.740;22.174;2022-08-14T04:35:39;10.73;;;9.63;;
50350;SDS011;36250;48.740;22.174;2022-08-14T04:38:05;11.75;;;10.02;;
50350;SDS011;36250;48.740;22.174;2022-08-14T04:40:50;11.85;;;10.63;;
50350;SDS011;36250;48.740;22.174;2022-08-14T04:43:34;11.88;;;10.68;;
50350;SDS011;36250;48.740;22.174;2022-08-14T04:46:03;14.20;;;11.73;;
50350;SDS011;36250;48.740;22.174;2022-08-14T04:48:29;11.52;;;10.23;;
50350;SDS011;36250;48.740;22.174;2022-08-14T04:50:55;11.73;;;10.52;;
50350;SDS011;36250;48.740;22.174;2022-08-14T04:53:24;12.00;;;10.73;;
50350;SDS011;36250;48.740;22.174;2022-08-14T04:55:51;12.07;;;10.88;;
50350;SDS011;36250;48.740;22.174;2022-08-14T04:58:17;11.85;;;10.30;;
50350;SDS011;36250;48.740;22.174;2022-08-14T05:00:45;12.73;;;10.68;;
50350;SDS011;36250;48.740;22.174;2022-08-14T05:03:15;11.88;;;9.98;;
50350;SDS011;36250;48.740;22.174;2022-08-14T05:05:45;14.75;;;10.73;;
50350;SDS011;36250;48.740;22.174;2022-08-14T05:08:11;15.73;;;10.98;;
50350;SDS011;36250;48.740;22.174;2022-08-14T05:10:39;16.23;;;10.90;;
50350;SDS011;36250;48.740;22.174;2022-08-14T05:13:06;12.93;;;11.50;;
50350;SDS011;36250;48.740;22.174;2022-08-14T05:15:33;18.58;;;11.65;;
50350;SDS011;36250;48.740;22.174;2022-08-14T05:18:03;12.30;;;11.00;;
50350;SDS011;36250;48.740;22.174;2022-08-14T05:20:35;17.42;;;11.45;;
50350;SDS011;36250;48.740;22.174;2022-08-14T05:23:00;13.07;;;11.77;;
50350;SDS011;36250;48.740;22.174;2022-08-14T05:25:26;11.43;;;10.35;;
50350;SDS011;36250;48.740;22.174;2022-08-14T05:27:51;13.23;;;9.23;;
50350;SDS011;36250;48.740;22.174;2022-08-14T05:30:17;9.82;;;8.82;;
50350;SDS011;36250;48.740;22.174;2022-08-14T05:32:43;10.27;;;9.13;;
50350;SDS011;36250;48.740;22.174;2022-08-14T05:35:09;10.40;;;9.07;;
50350;SDS011;36250;48.740;22.174;2022-08-14T05:37:35;10.68;;;9.57;;
50350;SDS011;36250;48.740;22.174;2022-08-14T05:40:01;9.77;;;8.88;;
50350;SDS011;36250;48.740;22.174;2022-08-14T05:42:26;10.43;;;9.07;;
50350;SDS011;36250;48.740;22.174;2022-08-14T05:44:52;12.20;;;10.82;;
50350;SDS011;36250;48.740;22.174;2022-08-14T05:47:17;12.50;;;9.57;;
50350;SDS011;36250;48.740;22.174;2022-08-14T05:49:43;10.35;;;9.13;;
50350;SDS011;36250;48.740;22.174;2022-08-14T05:52:10;16.00;;;9.77;;
50350;SDS011;36250;48.740;22.174;2022-08-14T05:54:35;11.57;;;9.27;;
50350;SDS011;36250;48.740;22.174;2022-08-14T05:57:00;12.80;;;9.77;;
50350;SDS011;36250;48.740;22.174;2022-08-14T05:59:27;11.25;;;9.55;;
50350;SDS011;36250;48.740;22.174;2022-08-14T06:01:52;11.18;;;9.40;;
50350;SDS011;36250;48.740;22.174;2022-08-14T06:04:17;10.45;;;8.07;;
50350;SDS011;36250;48.740;22.174;2022-08-14T06:06:43;9.18;;;8.38;;
50350;SDS011;36250;48.740;22.174;2022-08-14T06:09:08;9.77;;;8.77;;
50350;SDS011;36250;48.740;22.174;2022-08-14T06:11:34;10.20;;;8.55;;
50350;SDS011;36250;48.740;22.174;2022-08-14T06:14:00;10.60;;;8.55;;
50350;SDS011;36250;48.740;22.174;2022-08-14T06:16:25;9.30;;;8.40;;
50350;SDS011;36250;48.740;22.174;2022-08-14T06:18:51;15.93;;;8.80;;
50350;SDS011;36250;48.740;22.174;2022-08-14T06:21:16;11.40;;;8.70;;
50350;SDS011;36250;48.740;22.174;2022-08-14T06:23:41;9.45;;;8.00;;
50350;SDS011;36250;48.740;22.174;2022-08-14T06:26:07;8.63;;;7.80;;
50350;SDS011;36250;48.740;22.174;2022-08-14T06:28:32;8.68;;;7.88;;
50350;SDS011;36250;48.740;22.174;2022-08-14T06:30:58;10.15;;;8.80;;
50350;SDS011;36250;48.740;22.174;2022-08-14T06:33:23;8.90;;;8.10;;
50350;SDS011;36250;48.740;22.174;2022-08-14T06:35:49;9.73;;;8.63;;
50350;SDS011;36250;48.740;22.174;2022-08-14T06:38:18;8.50;;;7.68;;
50350;SDS011;36250;48.740;22.174;2022-08-14T06:40:45;17.75;;;9.23;;
50350;SDS011;36250;48.740;22.174;2022-08-14T06:43:12;10.15;;;8.10;;
50350;SDS011;36250;48.740;22.174;2022-08-14T06:45:39;9.68;;;8.20;;
50350;SDS011;36250;48.740;22.174;2022-08-14T06:48:27;8.38;;;7.68;;
50350;SDS011;36250;48.740;22.174;2022-08-14T06:50:53;10.77;;;7.97;;
50350;SDS011;36250;48.740;22.174;2022-08-14T06:53:19;9.50;;;8.50;;
50350;SDS011;36250;48.740;22.174;2022-08-14T06:55:46;8.52;;;7.75;;
50350;SDS011;36250;48.740;22.174;2022-08-14T06:58:12;8.70;;;7.78;;
50350;SDS011;36250;48.740;22.174;2022-08-14T07:00:39;8.93;;;8.13;;
50350;SDS011;36250;48.740;22.174;2022-08-14T07:03:25;11.18;;;8.00;;
50350;SDS011;36250;48.740;22.174;2022-08-14T07:06:11;8.60;;;7.75;;
50350;SDS011;36250;48.740;22.174;2022-08-14T07:08:37;10.05;;;8.70;;
50350;SDS011;36250;48.740;22.174;2022-08-14T07:11:02;11.40;;;8.02;;
50350;SDS011;36250;48.740;22.174;2022-08-14T07:13:28;9.15;;;8.25;;
50350;SDS011;36250;48.740;22.174;2022-08-14T07:15:54;9.00;;;8.10;;
50350;SDS011;36250;48.740;22.174;2022-08-14T07:18:21;9.38;;;8.05;;
50350;SDS011;36250;48.740;22.174;2022-08-14T07:20:48;9.32;;;8.30;;
50350;SDS011;36250;48.740;22.174;2022-08-14T07:23:14;7.85;;;7.13;;
50350;SDS011;36250;48.740;22.174;2022-08-14T07:25:42;9.13;;;7.95;;
50350;SDS011;36250;48.740;22.174;2022-08-14T07:28:11;10.55;;;7.97;;
50350;SDS011;36250;48.740;22.174;2022-08-14T07:30:42;9.85;;;8.38;;
50350;SDS011;36250;48.740;22.174;2022-08-14T07:33:08;9.15;;;7.55;;
50350;SDS011;36250;48.740;22.174;2022-08-14T07:35:34;10.90;;;8.15;;
50350;SDS011;36250;48.740;22.174;2022-08-14T07:38:01;9.18;;;8.23;;
50350;SDS011;36250;48.740;22.174;2022-08-14T07:40:28;9.35;;;8.07;;
50350;SDS011;36250;48.740;22.174;2022-08-14T07:42:53;8.93;;;7.88;;
50350;SDS011;36250;48.740;22.174;2022-08-14T07:45:19;10.45;;;7.97;;
50350;SDS011;36250;48.740;22.174;2022-08-14T07:47:45;8.90;;;8.10;;
50350;SDS011;36250;48.740;22.174;2022-08-14T07:50:12;9.80;;;8.90;;
50350;SDS011;36250;48.740;22.174;2022-08-14T07:52:39;8.63;;;7.82;;
50350;SDS011;36250;48.740;22.174;2022-08-14T07:55:05;8.93;;;8.13;;
50350;SDS011;36250;48.740;22.174;2022-08-14T07:57:32;14.52;;;8.63;;
50350;SDS011;36250;48.740;22.174;2022-08-14T07:59:57;9.60;;;8.60;;
50350;SDS011;36250;48.740;22.174;2022-08-14T08:02:22;9.73;;;8.73;;
50350;SDS011;36250;48.740;22.174;2022-08-14T08:04:54;9.00;;;8.20;;
50350;SDS011;36250;48.740;22.174;2022-08-14T08:07:19;11.80;;;8.88;;
50350;SDS011;36250;48.740;22.174;2022-08-14T08:09:49;8.05;;;7.28;;
50350;SDS011;36250;48.740;22.174;2022-08-14T08:12:19;9.20;;;8.40;;
50350;SDS011;36250;48.740;22.174;2022-08-14T08:14:46;11.15;;;8.35;;
50350;SDS011;36250;48.740;22.174;2022-08-14T08:17:15;10.00;;;8.43;;
50350;SDS011;36250;48.740;22.174;2022-08-14T08:19:44;9.50;;;8.70;;
50350;SDS011;36250;48.740;22.174;2022-08-14T08:22:11;9.45;;;8.55;;
50350;SDS011;36250;48.740;22.174;2022-08-14T08:24:36;12.38;;;9.23;;
50350;SDS011;36250;48.740;22.174;2022-08-14T08:27:02;10.07;;;9.18;;
50350;SDS011;36250;48.740;22.174;2022-08-14T08:29:38;9.02;;;8.18;;
50350;SDS011;36250;48.740;22.174;2022-08-14T08:32:04;11.40;;;7.95;;
50350;SDS011;36250;48.740;22.174;2022-08-14T08:34:29;10.93;;;8.75;;
50350;SDS011;36250;48.740;22.174;2022-08-14T08:36:56;8.57;;;7.68;;
50350;SDS011;36250;48.740;22.174;2022-08-14T08:39:22;10.15;;;7.82;;
50350;SDS011;36250;48.740;22.174;2022-08-14T08:41:47;9.32;;;8.30;;
50350;SDS011;36250;48.740;22.174;2022-08-14T08:44:13;10.35;;;8.50;;
50350;SDS011;36250;48.740;22.174;2022-08-14T08:46:39;10.40;;;8.25;;
50350;SDS011;36250;48.740;22.174;2022-08-14T08:49:06;9.75;;;8.85;;
50350;SDS011;36250;48.740;22.174;2022-08-14T08:51:33;10.18;;;9.18;;
50350;SDS011;36250;48.740;22.174;2022-08-14T08:54:04;9.68;;;8.70;;
50350;SDS011;36250;48.740;22.174;2022-08-14T08:56:42;10.23;;;8.98;;
50350;SDS011;36250;48.740;22.174;2022-08-14T09:01:50;9.77;;;8.88;;
50350;SDS011;36250;48.740;22.174;2022-08-14T09:04:18;10.60;;;9.52;;
50350;SDS011;36250;48.740;22.174;2022-08-14T09:06:47;9.80;;;8.80;;
50350;SDS011;36250;48.740;22.174;2022-08-14T09:09:24;9.82;;;8.88;;
50350;SDS011;36250;48.740;22.174;2022-08-14T09:11:51;10.70;;;8.50;;
50350;SDS011;36250;48.740;22.174;2022-08-14T09:14:19;12.60;;;9.95;;
50350;SDS011;36250;48.740;22.174;2022-08-14T09:16:46;9.60;;;8.60;;
50350;SDS011;36250;48.740;22.174;2022-08-14T09:19:11;9.90;;;8.88;;
50350;SDS011;36250;48.740;22.174;2022-08-14T09:21:37;9.80;;;8.88;;
50350;SDS011;36250;48.740;22.174;2022-08-14T09:24:03;10.38;;;8.57;;
50350;SDS011;36250;48.740;22.174;2022-08-14T09:26:30;9.32;;;8.45;;
50350;SDS011;36250;48.740;22.174;2022-08-14T09:28:56;9.57;;;8.68;;
50350;SDS011;36250;48.740;22.174;2022-08-14T09:31:21;9.35;;;8.40;;
50350;SDS011;36250;48.740;22.174;2022-08-14T09:33:54;9.85;;;8.88;;
50350;SDS011;36250;48.740;22.174;2022-08-14T09:42:32;10.80;;;9.10;;
50350;SDS011;36250;48.740;22.174;2022-08-14T09:50:21;9.40;;;8.48;;
50350;SDS011;36250;48.740;22.174;2022-08-14T09:52:59;8.98;;;8.07;;
50350;SDS011;36250;48.740;22.174;2022-08-14T09:55:27;9.73;;;8.68;;
50350;SDS011;36250;48.740;22.174;2022-08-14T09:58:09;11.18;;;8.75;;
50350;SDS011;36250;48.740;22.174;2022-08-14T10:00:48;14.07;;;9.18;;
50350;SDS011;36250;48.740;22.174;2022-08-14T10:03:25;8.95;;;8.07;;
50350;SDS011;36250;48.740;22.174;2022-08-14T10:06:08;9.85;;;8.85;;
50350;SDS011;36250;48.740;22.174;2022-08-14T10:08:40;10.32;;;8.73;;
50350;SDS011;36250;48.740;22.174;2022-08-14T10:11:15;8.88;;;8.18;;
50350;SDS011;36250;48.740;22.174;2022-08-14T10:13:43;9.70;;;8.43;;
50350;SDS011;36250;48.740;22.174;2022-08-14T10:16:09;11.30;;;8.55;;
50350;SDS011;36250;48.740;22.174;2022-08-14T10:18:35;9.15;;;8.25;;
50350;SDS011;36250;48.740;22.174;2022-08-14T10:21:01;10.68;;;8.48;;
50350;SDS011;36250;48.740;22.174;2022-08-14T10:23:38;8.63;;;7.78;;
50350;SDS011;36250;48.740;22.174;2022-08-14T10:26:06;10.13;;;8.57;;
50350;SDS011;36250;48.740;22.174;2022-08-14T10:28:39;8.00;;;7.30;;
50350;SDS011;36250;48.740;22.174;2022-08-14T10:31:17;8.68;;;7.88;;
50350;SDS011;36250;48.740;22.174;2022-08-14T10:33:45;10.73;;;8.40;;
50350;SDS011;36250;48.740;22.174;2022-08-14T10:36:30;9.35;;;8.10;;
50350;SDS011;36250;48.740;22.174;2022-08-14T10:39:20;8.68;;;7.70;;
50350;SDS011;36250;48.740;22.174;2022-08-14T10:41:47;9.25;;;8.45;;
50350;SDS011;36250;48.740;22.174;2022-08-14T10:44:23;8.32;;;7.60;;
50350;SDS011;36250;48.740;22.174;2022-08-14T10:47:00;9.45;;;8.40;;
50350;SDS011;36250;48.740;22.174;2022-08-14T10:49:30;8.25;;;7.45;;
50350;SDS011;36250;48.740;22.174;2022-08-14T10:57:22;9.98;;;8.13;;
50350;SDS011;36250;48.740;22.174;2022-08-14T10:59:55;9.30;;;8.38;;
50350;SDS011;36250;48.740;22.174;2022-08-14T11:02:36;9.73;;;8.50;;
50350;SDS011;36250;48.740;22.174;2022-08-14T11:07:36;8.88;;;7.10;;
50350;SDS011;36250;48.740;22.174;2022-08-14T11:10:05;10.50;;;7.53;;
50350;SDS011;36250;48.740;22.174;2022-08-14T11:15:10;8.35;;;7.25;;
50350;SDS011;36250;48.740;22.174;2022-08-14T11:17:36;10.60;;;8.20;;
50350;SDS011;36250;48.740;22.174;2022-08-14T11:20:03;8.85;;;7.75;;
50350;SDS011;36250;48.740;22.174;2022-08-14T11:22:31;8.98;;;7.93;;
50350;SDS011;36250;48.740;22.174;2022-08-14T11:25:04;9.13;;;8.18;;
50350;SDS011;36250;48.740;22.174;2022-08-14T11:27:31;8.63;;;7.85;;
50350;SDS011;36250;48.740;22.174;2022-08-14T11:30:02;9.15;;;8.30;;
50350;SDS011;36250;48.740;22.174;2022-08-14T11:32:30;12.18;;;8.35;;
50350;SDS011;36250;48.740;22.174;2022-08-14T11:34:57;10.27;;;7.28;;
50350;SDS011;36250;48.740;22.174;2022-08-14T11:37:23;9.25;;;7.65;;
50350;SDS011;36250;48.740;22.174;2022-08-14T11:39:48;9.00;;;7.45;;
50350;SDS011;36250;48.740;22.174;2022-08-14T11:42:21;7.70;;;7.00;;
50350;SDS011;36250;48.740;22.174;2022-08-14T11:44:48;7.90;;;7.10;;
50350;SDS011;36250;48.740;22.174;2022-08-14T11:47:14;9.82;;;7.45;;
50350;SDS011;36250;48.740;22.174;2022-08-14T11:49:46;9.98;;;6.93;;
50350;SDS011;36250;48.740;22.174;2022-08-14T11:52:16;7.47;;;6.72;;
50350;SDS011;36250;48.740;22.174;2022-08-14T11:54:43;8.65;;;7.80;;
50350;SDS011;36250;48.740;22.174;2022-08-14T11:57:16;8.63;;;7.20;;
50350;SDS011;36250;48.740;22.174;2022-08-14T11:59:43;7.85;;;6.85;;
50350;SDS011;36250;48.740;22.174;2022-08-14T12:02:10;12.18;;;7.00;;
50350;SDS011;36250;48.740;22.174;2022-08-14T12:04:46;7.70;;;7.00;;
50350;SDS011;36250;48.740;22.174;2022-08-14T12:07:13;7.97;;;7.00;;
50350;SDS011;36250;48.740;22.174;2022-08-14T12:09:38;8.13;;;7.38;;
50350;SDS011;36250;48.740;22.174;2022-08-14T12:12:13;7.95;;;6.78;;
50350;SDS011;36250;48.740;22.174;2022-08-14T12:14:53;7.25;;;6.57;;
50350;SDS011;36250;48.740;22.174;2022-08-14T12:17:24;6.88;;;6.35;;
50350;SDS011;36250;48.740;22.174;2022-08-14T12:20:00;7.75;;;6.60;;
50350;SDS011;36250;48.740;22.174;2022-08-14T12:22:35;7.57;;;6.88;;
50350;SDS011;36250;48.740;22.174;2022-08-14T12:25:03;10.93;;;7.30;;
50350;SDS011;36250;48.740;22.174;2022-08-14T12:27:37;10.07;;;7.38;;
50350;SDS011;36250;48.740;22.174;2022-08-14T12:30:24;7.22;;;6.60;;
50350;SDS011;36250;48.740;22.174;2022-08-14T12:32:53;7.68;;;6.95;;
50350;SDS011;36250;48.740;22.174;2022-08-14T12:35:20;8.95;;;7.10;;
50350;SDS011;36250;48.740;22.174;2022-08-14T12:37:48;7.22;;;6.53;;
50350;SDS011;36250;48.740;22.174;2022-08-14T12:40:15;7.30;;;6.70;;
50350;SDS011;36250;48.740;22.174;2022-08-14T12:42:43;7.10;;;6.50;;
50350;SDS011;36250;48.740;22.174;2022-08-14T12:45:09;7.70;;;6.57;;
50350;SDS011;36250;48.740;22.174;2022-08-14T12:47:37;15.68;;;5.75;;
50350;SDS011;36250;48.740;22.174;2022-08-14T12:50:05;6.03;;;5.50;;
50350;SDS011;36250;48.740;22.174;2022-08-14T12:55:08;11.77;;;4.85;;
50350;SDS011;36250;48.740;22.174;2022-08-14T12:57:42;6.97;;;5.22;;
50350;SDS011;36250;48.740;22.174;2022-08-14T13:00:16;10.38;;;5.35;;
50350;SDS011;36250;48.740;22.174;2022-08-14T13:02:45;8.07;;;5.40;;
50350;SDS011;36250;48.740;22.174;2022-08-14T13:05:14;7.85;;;4.90;;
50350;SDS011;36250;48.740;22.174;2022-08-14T13:07:40;6.60;;;4.90;;
50350;SDS011;36250;48.740;22.174;2022-08-14T13:10:11;5.13;;;4.63;;
50350;SDS011;36250;48.740;22.174;2022-08-14T13:12:38;7.28;;;5.22;;
50350;SDS011;36250;48.740;22.174;2022-08-14T13:15:06;7.90;;;5.40;;
50350;SDS011;36250;48.740;22.174;2022-08-14T13:17:35;5.35;;;4.85;;
50350;SDS011;36250;48.740;22.174;2022-08-14T13:20:04;8.30;;;5.07;;
50350;SDS011;36250;48.740;22.174;2022-08-14T13:22:30;5.53;;;4.93;;
50350;SDS011;36250;48.740;22.174;2022-08-14T13:24:58;8.63;;;5.13;;
50350;SDS011;36250;48.740;22.174;2022-08-14T13:27:26;6.97;;;5.75;;
50350;SDS011;36250;48.740;22.174;2022-08-14T13:29:54;13.95;;;5.57;;
50350;SDS011;36250;48.740;22.174;2022-08-14T13:32:23;9.05;;;4.97;;
50350;SDS011;36250;48.740;22.174;2022-08-14T13:34:49;7.22;;;5.88;;
50350;SDS011;36250;48.740;22.174;2022-08-14T13:37:16;8.20;;;5.50;;
50350;SDS011;36250;48.740;22.174;2022-08-14T13:39:46;6.30;;;5.30;;
50350;SDS011;36250;48.740;22.174;2022-08-14T13:42:13;5.70;;;5.15;;
50350;SDS011;36250;48.740;22.174;2022-08-14T13:44:42;5.88;;;5.38;;
50350;SDS011;36250;48.740;22.174;2022-08-14T13:47:11;6.28;;;5.55;;
50350;SDS011;36250;48.740;22.174;2022-08-14T13:49:38;13.82;;;6.25;;
50350;SDS011;36250;48.740;22.174;2022-08-14T13:52:04;9.15;;;6.03;;
50350;SDS011;36250;48.740;22.174;2022-08-14T13:54:31;6.53;;;5.93;;
50350;SDS011;36250;48.740;22.174;2022-08-14T13:57:01;10.93;;;6.25;;
50350;SDS011;36250;48.740;22.174;2022-08-14T13:59:28;13.27;;;6.80;;
50350;SDS011;36250;48.740;22.174;2022-08-14T14:01:55;7.10;;;6.45;;
50350;SDS011;36250;48.740;22.174;2022-08-14T14:04:28;6.68;;;5.93;;
50350;SDS011;36250;48.740;22.174;2022-08-14T14:06:55;6.90;;;6.30;;
50350;SDS011;36250;48.740;22.174;2022-08-14T14:09:27;9.02;;;6.20;;
50350;SDS011;36250;48.740;22.174;2022-08-14T14:11:54;8.52;;;6.18;;
50350;SDS011;36250;48.740;22.174;2022-08-14T14:14:23;9.43;;;5.95;;
50350;SDS011;36250;48.740;22.174;2022-08-14T14:16:49;6.93;;;5.90;;
50350;SDS011;36250;48.740;22.174;2022-08-14T14:19:17;7.13;;;6.18;;
50350;SDS011;36250;48.740;22.174;2022-08-14T14:21:44;6.45;;;5.85;;
50350;SDS011;36250;48.740;22.174;2022-08-14T14:24:13;6.50;;;5.90;;
50350;SDS011;36250;48.740;22.174;2022-08-14T14:26:38;7.20;;;6.40;;
50350;SDS011;36250;48.740;22.174;2022-08-14T14:29:07;7.55;;;6.65;;
50350;SDS011;36250;48.740;22.174;2022-08-14T14:31:34;7.78;;;6.15;;
50350;SDS011;36250;48.740;22.174;2022-08-14T14:34:01;9.65;;;7.65;;
50350;SDS011;36250;48.740;22.174;2022-08-14T14:36:28;9.73;;;7.07;;
50350;SDS011;36250;48.740;22.174;2022-08-14T14:39:00;10.18;;;7.63;;
50350;SDS011;36250;48.740;22.174;2022-08-14T14:41:30;11.00;;;7.93;;
50350;SDS011;36250;48.740;22.174;2022-08-14T14:43:57;18.75;;;8.18;;
50350;SDS011;36250;48.740;22.174;2022-08-14T14:46:24;14.98;;;8.15;;
50350;SDS011;36250;48.740;22.174;2022-08-14T14:51:23;9.85;;;7.07;;
50350;SDS011;36250;48.740;22.174;2022-08-14T14:53:48;10.63;;;8.15;;
50350;SDS011;36250;48.740;22.174;2022-08-14T14:56:13;8.75;;;7.88;;
50350;SDS011;36250;48.740;22.174;2022-08-14T14:58:40;9.75;;;7.68;;
50350;SDS011;36250;48.740;22.174;2022-08-14T15:01:07;8.80;;;7.90;;
50350;SDS011;36250;48.740;22.174;2022-08-14T15:03:34;9.75;;;8.38;;